createdAt,value
2018-05-02T00:00:29.644Z,7.54
2018-05-02T00:02:57.652Z,7.57
2018-05-02T00:05:25.692Z,7.44
2018-05-02T00:07:53.683Z,7.62
2018-05-02T00:10:21.801Z,7.53
2018-05-02T00:12:49.838Z,7.49
2018-05-02T00:15:17.818Z,7.58
2018-05-02T00:17:45.825Z,7.54
2018-05-02T00:20:13.794Z,7.57
2018-05-02T00:22:41.778Z,7.63
2018-05-02T00:25:09.778Z,7.50
2018-05-02T00:27:37.745Z,7.53
2018-05-02T00:30:05.716Z,7.46
2018-05-02T00:32:33.725Z,7.41
2018-05-02T00:35:01.732Z,7.54
2018-05-02T00:37:29.731Z,7.60
2018-05-02T00:39:58.258Z,7.47
2018-05-02T00:42:26.239Z,7.45
2018-05-02T00:44:54.204Z,7.41
2018-05-02T00:47:22.361Z,7.43
2018-05-02T00:49:50.445Z,7.38
2018-05-02T00:52:18.547Z,7.50
2018-05-02T00:54:46.549Z,7.52
2018-05-02T00:57:14.591Z,7.47
2018-05-02T00:59:42.563Z,7.46
2018-05-02T01:02:10.555Z,7.41
2018-05-02T01:04:38.533Z,7.39
2018-05-02T01:07:06.500Z,7.47
2018-05-02T01:09:34.505Z,7.47
2018-05-02T01:12:02.541Z,7.52
2018-05-02T01:14:30.554Z,7.50
2018-05-02T01:16:58.532Z,7.43
2018-05-02T01:19:26.515Z,7.34
2018-05-02T01:21:54.694Z,7.33
2018-05-02T01:24:22.684Z,7.26
2018-05-02T01:26:50.671Z,7.31
2018-05-02T01:29:18.677Z,7.42
2018-05-02T01:31:46.649Z,7.46
2018-05-02T01:34:14.626Z,7.38
2018-05-02T01:36:42.596Z,7.27
2018-05-02T01:39:11.274Z,7.29
2018-05-02T01:41:39.252Z,7.33
2018-05-02T01:44:07.281Z,7.38
2018-05-02T01:46:35.285Z,7.38
2018-05-02T01:49:15.097Z,7.24
2018-05-02T01:51:43.111Z,6.75
2018-05-02T01:54:11.329Z,6.34
2018-05-02T01:56:39.324Z,6.42
2018-05-02T01:59:07.313Z,6.29
2018-05-02T02:01:35.288Z,6.20
2018-05-02T02:04:03.291Z,6.11
2018-05-02T02:06:31.294Z,6.15
2018-05-02T02:08:59.266Z,6.24
2018-05-02T02:11:27.239Z,6.05
2018-05-02T02:13:55.228Z,5.70
2018-05-02T02:16:23.220Z,5.71
2018-05-02T02:18:51.196Z,5.91
2018-05-02T02:21:19.183Z,5.76
2018-05-02T02:23:47.161Z,5.72
2018-05-02T02:26:15.133Z,5.70
2018-05-02T02:28:43.202Z,5.72
2018-05-02T02:31:11.168Z,5.69
2018-05-02T02:33:39.160Z,5.60
2018-05-02T02:36:07.129Z,5.77
2018-05-02T02:38:35.146Z,5.78
2018-05-02T02:41:03.148Z,5.39
2018-05-02T02:43:31.136Z,5.31
2018-05-02T02:45:59.100Z,5.26
2018-05-02T02:48:27.072Z,5.34
2018-05-02T02:50:55.040Z,5.22
2018-05-02T02:53:23.016Z,5.08
2018-05-02T02:55:51.010Z,5.05
2018-05-02T02:58:19.024Z,4.92
2018-05-02T03:00:47.021Z,4.92
2018-05-02T03:03:15.029Z,4.89
2018-05-02T03:05:43.025Z,4.83
2018-05-02T03:08:11.026Z,4.73
2018-05-02T03:10:39.020Z,4.73
2018-05-02T03:13:06.988Z,4.62
2018-05-02T03:15:34.974Z,4.79
2018-05-02T03:18:02.966Z,4.90
2018-05-02T03:20:31.025Z,4.68
2018-05-02T03:22:59.012Z,4.77
2018-05-02T03:25:26.989Z,4.89
2018-05-02T03:27:54.983Z,4.83
2018-05-02T03:30:22.968Z,4.68
2018-05-02T03:32:50.962Z,4.72
2018-05-02T03:35:18.931Z,4.66
2018-05-02T03:37:47.648Z,4.69
2018-05-02T03:40:15.649Z,4.63
2018-05-02T03:42:43.575Z,4.72
2018-05-02T03:45:11.486Z,4.67
2018-05-02T03:47:39.386Z,4.50
2018-05-02T03:50:07.287Z,4.48
2018-05-02T03:52:35.216Z,4.53
2018-05-02T03:55:03.141Z,4.42
2018-05-02T03:57:31.035Z,4.53
2018-05-02T04:00:10.640Z,4.48
2018-05-02T04:02:50.380Z,4.53
2018-05-02T04:05:30.224Z,4.71
2018-05-02T04:07:58.362Z,4.64
2018-05-02T04:10:26.278Z,4.58
2018-05-02T04:12:54.189Z,4.52
2018-05-02T04:15:22.118Z,4.43
2018-05-02T04:17:50.018Z,4.41
2018-05-02T04:20:17.929Z,4.43
2018-05-02T04:22:45.838Z,4.50
2018-05-02T04:25:13.802Z,4.49
2018-05-02T04:27:41.717Z,4.47
2018-05-02T04:30:09.640Z,4.39
2018-05-02T04:32:37.556Z,4.36
2018-05-02T04:35:05.466Z,4.42
2018-05-02T04:37:33.426Z,4.46
2018-05-02T04:40:01.324Z,4.44
2018-05-02T04:42:29.918Z,4.51
2018-05-02T04:44:58.076Z,4.60
2018-05-02T04:47:26.003Z,4.81
2018-05-02T04:49:53.917Z,4.77
2018-05-02T04:52:21.847Z,4.96
2018-05-02T04:54:49.835Z,5.00
2018-05-02T04:57:17.747Z,4.96
2018-05-02T04:59:45.663Z,5.15
2018-05-02T05:02:13.739Z,5.17
2018-05-02T05:04:41.672Z,5.30
2018-05-02T05:07:09.587Z,5.56
2018-05-02T05:09:37.508Z,5.43
2018-05-02T05:12:05.433Z,5.48
2018-05-02T05:14:33.368Z,5.71
2018-05-02T05:17:01.496Z,5.89
2018-05-02T05:19:38.716Z,5.92
2018-05-02T05:22:11.507Z,5.94
2018-05-02T05:24:41.527Z,5.97
2018-05-02T05:27:14.920Z,6.08
2018-05-02T05:29:44.988Z,6.19
2018-05-02T05:32:14.455Z,6.21
2018-05-02T05:35:11.898Z,6.34
2018-05-02T05:37:42.760Z,6.58
2018-05-02T05:40:10.671Z,6.56
2018-05-02T05:42:38.619Z,6.60
2018-05-02T05:45:06.531Z,6.73
2018-05-02T05:47:34.467Z,6.91
2018-05-02T05:50:02.356Z,6.93
2018-05-02T05:52:30.302Z,6.97
2018-05-02T05:54:58.194Z,7.12
2018-05-02T05:57:26.130Z,7.25
2018-05-02T05:59:54.088Z,7.54
2018-05-02T06:02:22.000Z,7.73
2018-05-02T06:04:49.932Z,7.81
2018-05-02T06:07:17.837Z,7.87
2018-05-02T06:09:45.760Z,8.04
2018-05-02T06:12:13.682Z,7.92
2018-05-02T06:14:41.622Z,8.04
2018-05-02T06:17:09.567Z,8.24
2018-05-02T06:19:37.709Z,8.23
2018-05-02T06:22:05.841Z,8.11
2018-05-02T06:24:34.509Z,8.28
2018-05-02T06:27:02.596Z,8.30
2018-05-02T06:29:30.505Z,8.65
2018-05-02T06:31:58.519Z,8.91
2018-05-02T06:34:26.395Z,9.06
2018-05-02T06:36:54.359Z,9.16
2018-05-02T06:39:22.380Z,9.61
2018-05-02T06:41:50.383Z,9.89
2018-05-02T06:44:18.453Z,9.78
2018-05-02T06:46:46.410Z,10.12
2018-05-02T06:49:14.456Z,10.55
2018-05-02T06:51:42.374Z,10.77
2018-05-02T06:54:10.284Z,10.66
2018-05-02T06:56:38.199Z,10.48
2018-05-02T06:59:06.903Z,10.92
2018-05-02T07:01:34.854Z,10.53
2018-05-02T07:04:03.268Z,10.82
2018-05-02T07:06:31.223Z,10.59
2018-05-02T07:08:59.129Z,11.31
2018-05-02T07:11:27.100Z,11.19
2018-05-02T07:13:55.012Z,11.85
2018-05-02T07:16:23.172Z,11.71
2018-05-02T07:18:51.773Z,12.22
2018-05-02T07:21:20.238Z,12.12
2018-05-02T07:23:48.206Z,12.67
2018-05-02T07:26:16.290Z,12.64
2018-05-02T07:28:45.509Z,12.92
2018-05-02T07:31:13.475Z,12.44
2018-05-02T07:33:41.715Z,12.74
2018-05-02T07:36:10.052Z,12.84
2018-05-02T07:38:37.948Z,12.87
2018-05-02T07:41:05.888Z,12.77
2018-05-02T07:43:33.824Z,13.00
2018-05-02T07:46:01.746Z,13.19
2018-05-02T07:48:29.751Z,13.04
2018-05-02T07:50:57.628Z,13.01
2018-05-02T07:53:25.553Z,13.45
2018-05-02T07:55:53.484Z,13.31
2018-05-02T07:58:21.426Z,13.92
2018-05-02T08:00:49.524Z,13.82
2018-05-02T08:03:17.441Z,14.11
2018-05-02T08:05:45.390Z,14.40
2018-05-02T08:08:13.314Z,14.45
2018-05-02T08:10:41.333Z,14.79
2018-05-02T08:13:09.221Z,14.89
2018-05-02T08:15:37.239Z,14.94
2018-05-02T08:18:05.160Z,15.24
2018-05-02T08:20:33.062Z,15.67
2018-05-02T08:23:00.992Z,15.76
2018-05-02T08:25:28.880Z,15.12
2018-05-02T08:27:56.807Z,15.14
2018-05-02T08:30:24.698Z,15.85
2018-05-02T08:32:52.649Z,15.62
2018-05-02T08:35:20.520Z,15.89
2018-05-02T08:37:48.518Z,15.54
2018-05-02T08:40:16.412Z,15.31
2018-05-02T08:42:44.339Z,15.75
2018-05-02T08:45:12.253Z,15.84
2018-05-02T08:47:40.158Z,15.93
2018-05-02T08:50:08.090Z,15.80
2018-05-02T08:52:35.978Z,16.11
2018-05-02T08:55:03.895Z,16.42
2018-05-02T08:57:31.948Z,16.46
2018-05-02T08:59:59.785Z,16.35
2018-05-02T09:02:27.700Z,16.24
2018-05-02T09:04:55.665Z,16.26
2018-05-02T09:07:23.592Z,16.64
2018-05-02T09:09:51.545Z,16.29
2018-05-02T09:12:19.548Z,16.02
2018-05-02T09:14:47.507Z,16.48
2018-05-02T09:17:15.422Z,16.15
2018-05-02T09:19:43.331Z,16.43
2018-05-02T09:22:11.228Z,16.77
2018-05-02T09:24:39.152Z,16.57
2018-05-02T09:27:07.081Z,16.50
2018-05-02T09:29:35.075Z,17.22
2018-05-02T09:32:02.964Z,16.99
2018-05-02T09:34:30.905Z,16.88
2018-05-02T09:36:58.826Z,16.73
2018-05-02T09:39:26.731Z,15.99
2018-05-02T09:41:54.637Z,15.76
2018-05-02T09:44:22.567Z,15.06
2018-05-02T09:46:50.477Z,14.98
2018-05-02T09:49:19.428Z,14.95
2018-05-02T09:51:47.343Z,15.06
2018-05-02T09:54:15.275Z,15.25
2018-05-02T09:56:43.199Z,15.84
2018-05-02T09:59:11.144Z,16.54
2018-05-02T10:01:39.848Z,16.79
2018-05-02T10:04:07.768Z,17.21
2018-05-02T10:06:35.695Z,16.66
2018-05-02T10:09:03.638Z,17.13
2018-05-02T10:11:31.578Z,17.09
2018-05-02T10:13:59.451Z,17.50
2018-05-02T10:16:27.382Z,17.53
2018-05-02T10:18:55.311Z,17.81
2018-05-02T10:21:23.227Z,18.34
2018-05-02T10:23:51.170Z,18.33
2018-05-02T10:26:19.104Z,18.86
2018-05-02T10:28:47.028Z,18.84
2018-05-02T10:31:14.956Z,18.64
2018-05-02T10:33:42.858Z,18.46
2018-05-02T10:36:10.785Z,18.84
2018-05-02T10:38:38.696Z,18.89
2018-05-02T10:41:06.659Z,19.13
2018-05-02T10:43:34.604Z,18.50
2018-05-02T10:46:02.508Z,19.29
2018-05-02T10:48:30.426Z,19.02
2018-05-02T10:50:58.356Z,19.00
2018-05-02T10:53:26.261Z,19.63
2018-05-02T10:55:54.221Z,19.12
2018-05-02T10:58:22.084Z,19.01
2018-05-02T11:00:50.084Z,19.36
2018-05-02T11:03:18.077Z,19.68
2018-05-02T11:05:45.975Z,19.50
2018-05-02T11:08:13.907Z,18.73
2018-05-02T11:10:41.824Z,19.43
2018-05-02T11:13:09.796Z,19.92
2018-05-02T11:15:37.682Z,20.80
2018-05-02T11:18:05.613Z,20.56
2018-05-02T11:20:33.519Z,19.75
2018-05-02T11:23:01.486Z,19.54
2018-05-02T11:25:29.387Z,20.15
2018-05-02T11:27:57.320Z,19.50
2018-05-02T11:30:25.217Z,19.51
2018-05-02T11:32:53.148Z,19.88
2018-05-02T11:35:21.052Z,19.96
2018-05-02T11:37:48.982Z,20.39
2018-05-02T11:40:16.884Z,20.09
2018-05-02T11:42:44.787Z,20.07
2018-05-02T11:45:12.693Z,19.41
2018-05-02T11:47:40.643Z,19.92
2018-05-02T11:50:08.602Z,19.81
2018-05-02T11:52:36.512Z,18.81
2018-05-02T11:55:04.444Z,19.61
2018-05-02T11:57:32.393Z,19.46
2018-05-02T12:00:00.323Z,19.25
2018-05-02T12:02:28.277Z,19.25
2018-05-02T12:04:56.175Z,19.61
2018-05-02T12:07:24.297Z,19.51
2018-05-02T12:09:52.391Z,19.50
2018-05-02T12:12:20.287Z,19.39
2018-05-02T12:14:48.233Z,18.58
2018-05-02T12:17:16.139Z,18.41
2018-05-02T12:19:44.990Z,18.29
2018-05-02T12:22:12.912Z,18.73
2018-05-02T12:24:40.864Z,18.71
2018-05-02T12:27:08.814Z,19.35
2018-05-02T12:29:36.784Z,19.60
2018-05-02T12:32:04.807Z,19.36
2018-05-02T12:34:32.805Z,19.47
2018-05-02T12:37:00.691Z,18.86
2018-05-02T12:39:28.719Z,18.78
2018-05-02T12:41:56.691Z,17.82
2018-05-02T12:44:24.642Z,18.02
2018-05-02T12:46:52.636Z,18.21
2018-05-02T12:49:20.579Z,18.58
2018-05-02T12:51:48.492Z,18.30
2018-05-02T12:54:16.419Z,18.59
2018-05-02T12:56:44.329Z,18.18
2018-05-02T12:59:12.276Z,18.07
2018-05-02T13:01:40.211Z,18.24
2018-05-02T13:04:08.404Z,18.23
2018-05-02T13:06:36.347Z,18.17
2018-05-02T13:09:04.255Z,18.12
2018-05-02T13:11:32.235Z,18.37
2018-05-02T13:14:00.175Z,18.23
2018-05-02T13:16:28.101Z,18.14
2018-05-02T13:18:56.029Z,17.89
2018-05-02T13:21:24.678Z,18.14
2018-05-02T13:23:53.399Z,18.57
2018-05-02T13:26:21.320Z,18.38
2018-05-02T13:28:49.295Z,19.04
2018-05-02T13:31:17.216Z,18.87
2018-05-02T13:33:45.131Z,18.47
2018-05-02T13:36:13.095Z,18.27
2018-05-02T13:38:41.013Z,18.63
2018-05-02T13:41:08.974Z,19.00
2018-05-02T13:43:36.985Z,19.20
2018-05-02T13:46:04.893Z,18.93
2018-05-02T13:48:32.804Z,18.67
2018-05-02T13:51:00.747Z,18.57
2018-05-02T13:53:28.639Z,18.28
2018-05-02T13:55:56.604Z,17.44
2018-05-02T13:58:24.568Z,17.41
2018-05-02T14:00:52.526Z,17.19
2018-05-02T14:03:20.447Z,16.95
2018-05-02T14:05:49.170Z,16.96
2018-05-02T14:08:17.086Z,17.25
2018-05-02T14:10:45.009Z,17.29
2018-05-02T14:13:12.944Z,17.37
2018-05-02T14:15:40.844Z,16.94
2018-05-02T14:18:08.753Z,16.46
2018-05-02T14:20:36.742Z,16.26
2018-05-02T14:23:04.669Z,16.59
2018-05-02T14:25:32.558Z,16.70
2018-05-02T14:28:00.467Z,16.74
2018-05-02T14:30:28.393Z,16.39
2018-05-02T14:32:56.503Z,16.62
2018-05-02T14:35:24.264Z,16.63
2018-05-02T14:37:52.175Z,16.49
2018-05-02T14:40:20.116Z,16.49
2018-05-02T14:42:48.022Z,16.57
2018-05-02T14:45:16.122Z,16.45
2018-05-02T14:47:43.962Z,16.35
2018-05-02T14:50:11.910Z,16.21
2018-05-02T14:52:39.796Z,16.03
2018-05-02T14:55:07.709Z,16.17
2018-05-02T14:57:35.607Z,16.43
2018-05-02T15:00:03.541Z,16.25
2018-05-02T15:02:31.475Z,16.19
2018-05-02T15:04:59.419Z,16.14
2018-05-02T15:07:27.383Z,15.91
2018-05-02T15:09:55.305Z,15.98
2018-05-02T15:12:23.244Z,16.14
2018-05-02T15:14:51.154Z,16.24
2018-05-02T15:17:19.073Z,16.29
2018-05-02T15:19:46.996Z,16.35
2018-05-02T15:22:14.919Z,16.31
2018-05-02T15:24:42.900Z,16.41
2018-05-02T15:27:10.751Z,16.36
2018-05-02T15:29:38.729Z,16.60
2018-05-02T15:32:06.677Z,16.52
2018-05-02T15:34:34.666Z,16.50
2018-05-02T15:37:02.606Z,16.45
2018-05-02T15:39:30.513Z,16.37
2018-05-02T15:41:58.430Z,16.27
2018-05-02T15:44:26.553Z,16.20
2018-05-02T15:46:54.456Z,16.32
2018-05-02T15:49:22.495Z,16.45
2018-05-02T15:51:50.356Z,16.32
2018-05-02T15:54:18.372Z,16.26
2018-05-02T15:56:46.275Z,16.22
2018-05-02T15:59:14.211Z,16.13
2018-05-02T16:01:42.183Z,16.18
2018-05-02T16:04:10.134Z,16.07
2018-05-02T16:06:38.353Z,16.00
2018-05-02T16:09:07.883Z,15.92
2018-05-02T16:11:35.784Z,15.77
2018-05-02T16:14:03.703Z,15.63
2018-05-02T16:16:31.724Z,15.67
2018-05-02T16:19:00.427Z,15.70
2018-05-02T16:21:28.360Z,15.58
2018-05-02T16:23:56.264Z,15.63
2018-05-02T16:26:24.186Z,15.71
2018-05-02T16:28:52.105Z,15.45
2018-05-02T16:31:20.036Z,15.39
2018-05-02T16:33:47.991Z,15.37
2018-05-02T16:36:16.304Z,15.54
2018-05-02T16:38:44.610Z,15.63
2018-05-02T16:41:12.592Z,15.63
2018-05-02T16:43:40.502Z,15.61
2018-05-02T16:46:08.504Z,15.78
2018-05-02T16:48:36.410Z,15.70
2018-05-02T16:51:04.311Z,15.70
2018-05-02T16:53:32.415Z,15.73
2018-05-02T16:56:00.320Z,15.71
2018-05-02T16:58:28.294Z,15.82
2018-05-02T17:00:56.198Z,15.81
2018-05-02T17:03:24.100Z,15.71
2018-05-02T17:05:52.116Z,15.61
2018-05-02T17:08:20.099Z,15.67
2018-05-02T17:10:48.063Z,15.46
2018-05-02T17:13:16.131Z,15.46
2018-05-02T17:15:44.044Z,15.32
2018-05-02T17:18:11.963Z,15.22
2018-05-02T17:20:39.909Z,15.29
2018-05-02T17:23:07.980Z,15.16
2018-05-02T17:25:37.400Z,15.13
2018-05-02T17:28:05.361Z,15.09
2018-05-02T17:30:33.332Z,15.06
2018-05-02T17:33:01.995Z,15.01
2018-05-02T17:35:29.933Z,15.08
2018-05-02T17:37:58.031Z,14.98
2018-05-02T17:40:26.059Z,14.96
2018-05-02T17:42:54.011Z,14.85
2018-05-02T17:45:21.918Z,14.91
2018-05-02T17:47:50.211Z,14.86
2018-05-02T17:50:18.386Z,14.94
2018-05-02T17:52:46.376Z,14.91
2018-05-02T17:55:14.353Z,14.85
2018-05-02T17:57:42.279Z,14.79
2018-05-02T18:00:10.222Z,14.60
2018-05-02T18:02:38.300Z,14.72
2018-05-02T18:05:06.180Z,14.63
2018-05-02T18:07:35.422Z,14.44
2018-05-02T18:10:04.176Z,14.17
2018-05-02T18:12:32.219Z,14.19
2018-05-02T18:15:00.375Z,14.08
2018-05-02T18:17:28.292Z,14.01
2018-05-02T18:19:56.328Z,13.88
2018-05-02T18:22:24.282Z,13.92
2018-05-02T18:24:52.199Z,13.73
2018-05-02T18:27:20.200Z,13.75
2018-05-02T18:29:48.062Z,13.65
2018-05-02T18:32:15.999Z,13.69
2018-05-02T18:34:43.963Z,13.67
2018-05-02T18:37:11.984Z,13.62
2018-05-02T18:39:39.963Z,13.56
2018-05-02T18:42:08.015Z,13.64
2018-05-02T18:44:35.956Z,13.55
2018-05-02T18:47:03.967Z,13.62
2018-05-02T18:49:31.862Z,13.62
2018-05-02T18:51:59.796Z,13.53
2018-05-02T18:54:27.725Z,13.60
2018-05-02T18:56:55.667Z,13.47
2018-05-02T18:59:23.619Z,13.40
2018-05-02T19:01:51.539Z,13.41
2018-05-02T19:04:19.498Z,13.44
2018-05-02T19:06:47.405Z,13.33
2018-05-02T19:09:16.159Z,13.35
2018-05-02T19:11:44.169Z,13.33
2018-05-02T19:14:12.093Z,13.29
2018-05-02T19:16:40.336Z,13.29
2018-05-02T19:19:13.905Z,13.21
2018-05-02T19:21:41.856Z,13.16
2018-05-02T19:24:09.813Z,13.00
2018-05-02T19:26:37.716Z,12.97
2018-05-02T19:29:06.403Z,13.00
2018-05-02T19:31:39.915Z,13.06
2018-05-02T19:34:07.830Z,12.93
2018-05-02T19:36:35.782Z,12.90
2018-05-02T19:39:03.712Z,12.91
2018-05-02T19:44:30.119Z,12.86
2018-05-02T19:46:58.856Z,12.84
2018-05-02T19:49:26.781Z,12.86
2018-05-02T19:52:00.471Z,12.85
2018-05-02T19:54:29.440Z,12.82
2018-05-02T19:56:57.463Z,12.79
2018-05-02T19:59:25.392Z,12.77
2018-05-02T20:01:58.841Z,12.73
2018-05-02T20:04:26.786Z,12.64
2018-05-02T20:06:54.712Z,12.64
2018-05-02T20:09:28.280Z,12.70
2018-05-02T20:12:01.922Z,12.65
2018-05-02T20:14:29.931Z,12.74
2018-05-02T20:16:58.301Z,12.78
2018-05-02T20:19:26.313Z,12.73
2018-05-02T20:21:54.231Z,12.73
2018-05-02T20:24:22.602Z,12.76
2018-05-02T20:26:50.512Z,12.72
2018-05-02T20:29:18.439Z,12.63
2018-05-02T20:31:46.335Z,12.60
2018-05-02T20:34:14.228Z,12.50
2018-05-02T20:36:42.167Z,12.55
2018-05-02T20:39:10.187Z,12.63
2018-05-02T20:41:38.121Z,12.51
2018-05-02T20:44:06.032Z,12.44
2018-05-02T20:46:33.950Z,12.44
2018-05-02T20:49:01.856Z,12.33
2018-05-02T20:51:29.978Z,12.26
2018-05-02T20:53:57.943Z,12.36
2018-05-02T20:56:25.848Z,12.42
2018-05-02T20:58:53.806Z,12.36
2018-05-02T21:01:21.720Z,12.28
2018-05-02T21:03:49.659Z,12.25
2018-05-02T21:06:17.608Z,12.13
2018-05-02T21:08:45.519Z,12.12
2018-05-02T21:11:13.435Z,12.17
2018-05-02T21:13:41.467Z,12.15
2018-05-02T21:16:09.364Z,12.15
2018-05-02T21:18:37.269Z,12.08
2018-05-02T21:21:05.335Z,12.00
2018-05-02T21:23:33.274Z,11.96
2018-05-02T21:26:01.207Z,11.96
2018-05-02T21:28:29.105Z,11.97
2018-05-02T21:30:57.068Z,11.94
2018-05-02T21:33:25.246Z,11.90
2018-05-02T21:35:53.456Z,11.92
2018-05-02T21:38:21.564Z,11.78
2018-05-02T21:40:49.490Z,11.79
2018-05-02T21:43:17.431Z,11.84
2018-05-02T21:45:45.551Z,11.68
2018-05-02T21:48:13.571Z,11.64
2018-05-02T21:50:42.007Z,11.75
2018-05-02T21:53:10.411Z,11.62
2018-05-02T21:55:38.330Z,11.53
2018-05-02T21:58:06.240Z,11.53
2018-05-02T22:00:34.167Z,11.55
2018-05-02T22:03:02.079Z,11.46
2018-05-02T22:05:30.030Z,11.34
2018-05-02T22:07:57.998Z,11.41
2018-05-02T22:10:25.911Z,11.39
2018-05-02T22:12:53.842Z,11.44
2018-05-02T22:15:21.831Z,11.46
2018-05-02T22:17:49.758Z,11.36
2018-05-02T22:20:17.703Z,11.33
2018-05-02T22:22:45.651Z,11.27
2018-05-02T22:25:13.614Z,11.20
2018-05-02T22:27:41.532Z,11.14
2018-05-02T22:30:09.474Z,11.15
2018-05-02T22:32:37.457Z,11.30
2018-05-02T22:35:05.388Z,11.27
2018-05-02T22:37:33.308Z,11.09
2018-05-02T22:40:01.224Z,10.99
2018-05-02T22:42:29.167Z,10.97
2018-05-02T22:44:57.113Z,10.88
2018-05-02T22:47:25.022Z,10.90
2018-05-02T22:49:52.949Z,10.92
2018-05-02T22:52:20.883Z,10.83
2018-05-02T22:54:48.795Z,10.85
2018-05-02T22:57:16.748Z,10.89
2018-05-02T22:59:44.651Z,10.79
2018-05-02T23:02:12.601Z,10.82
2018-05-02T23:04:40.496Z,10.77
2018-05-02T23:07:08.446Z,10.72
2018-05-02T23:09:36.373Z,10.69
2018-05-02T23:12:04.295Z,10.78
2018-05-02T23:14:32.225Z,10.85
2018-05-02T23:17:00.154Z,10.63
2018-05-02T23:19:28.095Z,10.48
2018-05-02T23:21:56.016Z,10.58
2018-05-02T23:24:23.939Z,10.63
2018-05-02T23:26:51.847Z,10.64
2018-05-02T23:29:19.800Z,10.62
2018-05-02T23:31:47.736Z,10.60
2018-05-02T23:34:15.658Z,10.63
2018-05-02T23:36:43.991Z,10.80
2018-05-02T23:39:11.935Z,10.84
2018-05-02T23:41:39.827Z,10.84
2018-05-02T23:44:07.775Z,10.83
2018-05-02T23:46:35.699Z,10.80
2018-05-02T23:49:03.662Z,10.71
2018-05-02T23:51:31.556Z,10.63
2018-05-02T23:53:59.475Z,10.74
2018-05-02T23:56:27.388Z,10.85
2018-05-02T23:58:55.464Z,10.83
